createdAt,value
2022-10-03T00:01:08.991Z,29.38
2022-10-03T00:03:57.969Z,34.40
2022-10-03T00:06:35.053Z,23.17
2022-10-03T00:09:07.473Z,27.80
2022-10-03T00:11:44.049Z,34.20
2022-10-03T00:14:37.154Z,32.75
2022-10-03T00:17:32.421Z,35.30
2022-10-03T00:20:21.008Z,27.83
2022-10-03T00:23:11.540Z,33.45
2022-10-03T00:26:24.248Z,34.55
2022-10-03T00:29:14.236Z,30.27
2022-10-03T00:31:55.457Z,30.88
2022-10-03T00:34:53.176Z,30.45
2022-10-03T00:37:44.241Z,30.20
2022-10-03T00:40:16.867Z,28.88
2022-10-03T00:43:05.275Z,29.50
2022-10-03T00:45:50.601Z,31.17
2022-10-03T00:48:35.362Z,30.05
2022-10-03T00:51:02.151Z,27.30
2022-10-03T00:53:42.021Z,33.95
2022-10-03T00:56:17.866Z,29.75
2022-10-03T00:59:18.597Z,30.05
2022-10-03T01:01:48.585Z,27.73
2022-10-03T01:04:27.746Z,25.83
2022-10-03T01:06:57.294Z,27.95
2022-10-03T01:09:42.047Z,25.55
2022-10-03T01:12:13.599Z,29.52
2022-10-03T01:15:11.213Z,24.25
2022-10-03T01:17:48.272Z,23.65
2022-10-03T01:20:39.766Z,24.02
2022-10-03T01:23:21.259Z,25.17
2022-10-03T01:26:25.431Z,24.77
2022-10-03T01:29:17.575Z,27.75
2022-10-03T01:31:58.543Z,32.85
2022-10-03T01:34:51.854Z,31.63
2022-10-03T01:37:34.044Z,26.50
2022-10-03T01:40:16.414Z,24.55
2022-10-03T01:43:12.018Z,22.15
2022-10-03T01:45:48.577Z,16.83
2022-10-03T01:48:34.079Z,15.57
2022-10-03T01:51:04.574Z,17.48
2022-10-03T01:53:49.336Z,17.55
2022-10-03T01:56:27.358Z,17.67
2022-10-03T01:59:08.465Z,17.23
2022-10-03T02:01:59.938Z,17.55
2022-10-03T02:04:59.170Z,17.27
2022-10-03T02:07:52.415Z,20.50
2022-10-03T02:10:25.053Z,19.75
2022-10-03T02:13:34.592Z,19.75
2022-10-03T02:16:25.226Z,18.00
2022-10-03T02:19:06.129Z,17.63
2022-10-03T02:21:34.655Z,17.38
2022-10-03T02:24:25.050Z,20.17
2022-10-03T02:27:14.164Z,15.90
2022-10-03T02:29:56.145Z,18.00
2022-10-03T02:33:04.018Z,16.77
2022-10-03T02:35:52.120Z,17.27
2022-10-03T02:38:25.484Z,17.40
2022-10-03T02:41:07.321Z,18.80
2022-10-03T02:44:00.298Z,22.48
2022-10-03T02:46:46.676Z,23.30
2022-10-03T02:49:19.297Z,26.05
2022-10-03T02:52:05.984Z,26.48
2022-10-03T02:54:44.769Z,25.38
2022-10-03T02:57:42.678Z,22.20
2022-10-03T03:00:18.618Z,20.50
2022-10-03T03:02:59.088Z,15.82
2022-10-03T03:05:47.608Z,19.50
2022-10-03T03:08:48.694Z,20.02
2022-10-03T03:11:54.715Z,20.23
2022-10-03T03:14:48.221Z,19.42
2022-10-03T03:17:17.864Z,22.00
2022-10-03T03:20:02.877Z,29.33
2022-10-03T03:22:48.445Z,24.70
2022-10-03T03:25:54.036Z,25.58
2022-10-03T03:28:29.827Z,19.60
2022-10-03T03:31:13.853Z,22.17
2022-10-03T03:34:05.173Z,21.13
2022-10-03T03:36:44.388Z,22.60
2022-10-03T03:39:30.066Z,20.75
2022-10-03T03:42:17.961Z,17.52
2022-10-03T03:45:04.073Z,18.30
2022-10-03T03:47:49.276Z,12.85
2022-10-03T03:50:28.191Z,11.15
2022-10-03T03:53:09.537Z,10.35
2022-10-03T03:55:48.848Z,10.15
2022-10-03T03:58:21.986Z,9.07
2022-10-03T04:01:16.703Z,9.75
2022-10-03T04:04:02.210Z,10.80
2022-10-03T04:06:37.299Z,14.82
2022-10-03T04:09:17.024Z,13.63
2022-10-03T04:11:50.172Z,10.48
2022-10-03T04:14:30.319Z,9.57
2022-10-03T04:17:36.936Z,10.60
2022-10-03T04:20:26.981Z,11.50
2022-10-03T04:22:53.758Z,11.07
2022-10-03T04:25:26.531Z,10.85
2022-10-03T04:28:18.316Z,12.50
2022-10-03T04:31:05.085Z,12.13
2022-10-03T04:33:59.323Z,10.07
2022-10-03T04:36:57.243Z,18.92
2022-10-03T04:39:50.402Z,19.65
2022-10-03T04:42:52.958Z,12.32
2022-10-03T04:45:44.856Z,13.07
2022-10-03T04:48:13.030Z,13.35
2022-10-03T04:50:50.641Z,12.90
2022-10-03T04:53:23.402Z,12.65
2022-10-03T04:56:24.545Z,9.88
2022-10-03T04:59:10.132Z,9.77
2022-10-03T05:01:47.001Z,11.57
2022-10-03T05:04:55.622Z,12.85
2022-10-03T05:07:31.571Z,15.10
2022-10-03T05:10:40.714Z,16.25
2022-10-03T05:13:18.162Z,14.07
2022-10-03T05:16:02.353Z,16.65
2022-10-03T05:18:29.984Z,8.43
2022-10-03T05:21:09.745Z,12.43
2022-10-03T05:24:10.538Z,14.35
2022-10-03T05:27:03.483Z,9.85
2022-10-03T05:30:00.694Z,12.23
2022-10-03T05:33:05.025Z,10.98
2022-10-03T05:35:43.457Z,6.95
2022-10-03T05:38:15.959Z,10.88
2022-10-03T05:41:26.138Z,9.93
2022-10-03T05:44:31.988Z,8.95
2022-10-03T05:47:46.634Z,9.07
2022-10-03T05:50:28.634Z,11.25
2022-10-03T05:53:25.314Z,9.25
2022-10-03T05:56:11.879Z,10.00
2022-10-03T05:58:47.745Z,10.48
2022-10-03T06:01:29.606Z,12.95
2022-10-03T06:04:36.578Z,11.82
2022-10-03T06:07:12.824Z,14.73
2022-10-03T06:10:21.571Z,16.73
2022-10-03T06:12:57.310Z,20.13
2022-10-03T06:15:38.562Z,15.18
2022-10-03T06:18:21.053Z,10.18
2022-10-03T06:20:47.824Z,10.00
2022-10-03T06:23:17.656Z,11.95
2022-10-03T06:26:18.370Z,8.65
2022-10-03T06:29:36.171Z,8.32
2022-10-03T06:32:42.078Z,5.15
2022-10-03T06:35:46.511Z,5.40
2022-10-03T06:38:19.314Z,4.55
2022-10-03T06:41:08.230Z,3.92
2022-10-03T06:43:58.807Z,5.13
2022-10-03T06:47:10.606Z,7.97
2022-10-03T06:49:52.676Z,5.78
2022-10-03T06:52:28.419Z,7.15
2022-10-03T06:54:54.968Z,4.85
2022-10-03T06:57:57.254Z,6.75
2022-10-03T07:01:01.227Z,4.72
2022-10-03T07:04:03.861Z,5.35
2022-10-03T07:06:37.381Z,7.95
2022-10-03T07:09:32.033Z,5.57
2022-10-03T07:12:37.731Z,4.85
2022-10-03T07:15:43.916Z,3.33
2022-10-03T07:18:32.409Z,3.55
2022-10-03T07:21:05.668Z,4.78
2022-10-03T07:23:53.770Z,4.55
2022-10-03T07:26:51.605Z,8.65
2022-10-03T07:29:23.989Z,12.00
2022-10-03T07:32:04.820Z,6.57
2022-10-03T07:34:56.257Z,6.10
2022-10-03T07:37:51.004Z,6.38
2022-10-03T07:40:32.893Z,6.03
2022-10-03T07:43:03.685Z,6.40
2022-10-03T07:45:34.616Z,6.80
2022-10-03T07:48:17.474Z,6.15
2022-10-03T07:51:00.867Z,5.68
2022-10-03T07:54:01.347Z,6.32
2022-10-03T07:56:48.474Z,8.35
2022-10-03T07:59:30.529Z,7.10
2022-10-03T08:02:34.512Z,7.63
2022-10-03T08:05:23.035Z,7.20
2022-10-03T08:08:12.606Z,7.65
2022-10-03T08:10:49.966Z,9.70
2022-10-03T08:13:25.561Z,7.05
2022-10-03T08:16:07.496Z,7.70
2022-10-03T08:19:10.713Z,8.15
2022-10-03T08:22:06.161Z,7.38
2022-10-03T08:25:07.329Z,8.13
2022-10-03T08:27:35.403Z,8.40
2022-10-03T08:30:25.959Z,10.45
2022-10-03T08:33:23.929Z,7.80
2022-10-03T08:36:27.490Z,9.80
2022-10-03T08:39:29.809Z,10.43
2022-10-03T08:42:32.020Z,9.68
2022-10-03T08:45:23.013Z,8.35
2022-10-03T08:48:37.679Z,11.75
2022-10-03T08:51:13.411Z,10.75
2022-10-03T08:53:49.362Z,11.70
2022-10-03T08:56:48.367Z,12.10
2022-10-03T08:59:31.531Z,11.88
2022-10-03T09:02:17.724Z,11.77
2022-10-03T09:04:54.008Z,9.90
2022-10-03T09:07:23.822Z,9.85
2022-10-03T09:10:24.696Z,9.07
2022-10-03T09:13:15.992Z,10.30
2022-10-03T09:15:54.434Z,8.07
2022-10-03T09:18:40.855Z,10.00
2022-10-03T09:21:37.421Z,9.43
2022-10-03T09:24:07.289Z,9.85
2022-10-03T09:27:14.872Z,10.68
2022-10-03T09:30:00.920Z,11.52
2022-10-03T09:33:04.865Z,9.38
2022-10-03T09:35:43.861Z,12.95
2022-10-03T09:38:48.260Z,14.30
2022-10-03T09:41:33.758Z,14.27
2022-10-03T09:44:16.120Z,14.88
2022-10-03T09:47:18.594Z,14.00
2022-10-03T09:50:03.667Z,10.30
2022-10-03T09:52:42.558Z,12.10
2022-10-03T09:55:22.246Z,11.93
2022-10-03T09:58:18.598Z,11.60
2022-10-03T10:01:04.340Z,10.02
2022-10-03T10:03:56.921Z,8.35
2022-10-03T10:06:39.109Z,8.20
2022-10-03T10:09:12.012Z,7.43
2022-10-03T10:11:41.916Z,6.30
2022-10-03T10:14:34.867Z,8.75
2022-10-03T10:17:39.450Z,8.10
2022-10-03T10:20:24.459Z,6.40
2022-10-03T10:23:14.295Z,6.43
2022-10-03T10:26:15.542Z,6.57
2022-10-03T10:28:55.686Z,7.78
2022-10-03T10:31:32.563Z,7.25
2022-10-03T10:34:36.751Z,6.22
2022-10-03T10:37:19.571Z,4.82
2022-10-03T10:40:08.064Z,4.72
2022-10-03T10:43:31.931Z,5.07
2022-10-03T10:46:21.136Z,5.70
2022-10-03T10:49:04.001Z,4.85
2022-10-03T10:51:33.945Z,8.93
2022-10-03T10:54:06.832Z,3.97
2022-10-03T10:56:45.647Z,4.45
2022-10-03T10:59:31.027Z,4.40
2022-10-03T11:02:19.034Z,3.47
2022-10-03T11:05:07.608Z,3.10
2022-10-03T11:08:11.824Z,3.30
2022-10-03T11:10:55.489Z,3.10
2022-10-03T11:13:50.879Z,3.38
2022-10-03T11:16:56.365Z,3.00
2022-10-03T11:19:49.180Z,2.90
2022-10-03T11:22:38.073Z,2.97
2022-10-03T11:25:42.894Z,2.53
2022-10-03T11:28:38.035Z,2.42
2022-10-03T11:31:23.778Z,2.55
2022-10-03T11:34:15.238Z,2.83
2022-10-03T11:37:25.530Z,2.80
2022-10-03T11:40:34.694Z,2.72
2022-10-03T11:43:17.933Z,2.70
2022-10-03T11:45:55.897Z,2.95
2022-10-03T11:48:26.537Z,2.67
2022-10-03T11:51:03.358Z,2.75
2022-10-03T11:53:40.277Z,2.35
2022-10-03T11:56:30.272Z,2.50
2022-10-03T11:59:27.153Z,2.45
2022-10-03T12:02:03.100Z,2.42
2022-10-03T12:04:48.406Z,2.17
2022-10-03T12:08:25.014Z,2.00
2022-10-03T12:11:08.815Z,2.58
2022-10-03T12:13:44.973Z,2.05
2022-10-03T12:16:27.960Z,2.33
2022-10-03T12:19:25.177Z,2.72
2022-10-03T12:22:03.684Z,2.50
2022-10-03T12:24:51.377Z,2.13
2022-10-03T12:27:32.769Z,3.13
2022-10-03T12:30:04.772Z,2.90
2022-10-03T12:33:05.621Z,2.88
2022-10-03T12:36:01.424Z,2.90
2022-10-03T12:39:00.813Z,2.88
2022-10-03T12:42:15.059Z,3.47
2022-10-03T12:44:59.929Z,3.20
2022-10-03T12:47:51.204Z,3.60
2022-10-03T12:50:34.728Z,3.10
2022-10-03T12:53:44.569Z,2.78
2022-10-03T12:56:18.514Z,2.70
2022-10-03T12:58:58.051Z,2.90
2022-10-03T13:01:28.833Z,2.65
2022-10-03T13:04:30.271Z,2.60
2022-10-03T13:07:15.621Z,2.90
2022-10-03T13:10:03.994Z,2.50
2022-10-03T13:12:54.857Z,2.70
2022-10-03T13:16:04.566Z,2.60
2022-10-03T13:18:55.748Z,2.28
2022-10-03T13:22:03.846Z,2.47
2022-10-03T13:25:00.304Z,2.50
2022-10-03T13:27:30.752Z,2.70
2022-10-03T13:30:06.704Z,2.55
2022-10-03T13:32:40.914Z,2.40
2022-10-03T13:35:36.713Z,2.30
2022-10-03T13:38:35.353Z,3.13
2022-10-03T13:41:10.513Z,2.17
2022-10-03T13:43:40.018Z,1.92
2022-10-03T13:46:26.331Z,1.70
2022-10-03T13:49:02.140Z,2.10
2022-10-03T13:51:45.663Z,1.40
2022-10-03T13:54:21.198Z,1.30
2022-10-03T13:56:56.356Z,1.40
2022-10-03T13:59:56.513Z,1.48
2022-10-03T14:02:42.204Z,1.30
2022-10-03T14:05:28.070Z,1.48
2022-10-03T14:08:15.195Z,1.50
2022-10-03T14:11:19.837Z,1.30
2022-10-03T14:14:10.875Z,1.50
2022-10-03T14:16:50.368Z,1.70
2022-10-03T14:19:41.730Z,1.80
2022-10-03T14:22:18.806Z,1.50
2022-10-03T14:24:56.470Z,1.73
2022-10-03T14:27:32.292Z,1.80
2022-10-03T14:30:06.993Z,1.70
2022-10-03T14:32:55.063Z,1.75
2022-10-03T14:35:28.954Z,1.83
2022-10-03T14:38:24.366Z,2.00
2022-10-03T14:41:05.218Z,1.75
2022-10-03T14:43:38.283Z,2.00
2022-10-03T14:46:06.837Z,1.77
2022-10-03T14:48:38.747Z,1.98
2022-10-03T14:51:30.126Z,1.60
2022-10-03T14:54:22.434Z,1.60
2022-10-03T14:56:51.999Z,2.05
2022-10-03T14:59:21.070Z,2.10
2022-10-03T15:01:55.678Z,1.65
2022-10-03T15:04:41.972Z,1.85
2022-10-03T15:07:09.586Z,1.85
2022-10-03T15:09:40.132Z,1.52
2022-10-03T15:12:24.876Z,1.50
2022-10-03T15:15:16.012Z,1.50
2022-10-03T15:17:54.217Z,1.33
2022-10-03T15:20:27.451Z,1.75
2022-10-03T15:22:58.071Z,1.70
2022-10-03T15:25:34.292Z,1.30
2022-10-03T15:28:05.959Z,1.60
2022-10-03T15:30:36.668Z,1.52
2022-10-03T15:33:15.509Z,1.50
2022-10-03T15:35:47.161Z,1.80
2022-10-03T15:38:27.766Z,1.60
2022-10-03T15:41:07.650Z,1.70
2022-10-03T15:43:42.684Z,1.63
2022-10-03T15:46:22.021Z,2.20
2022-10-03T15:48:54.200Z,2.13
2022-10-03T15:51:26.511Z,1.83
2022-10-03T15:53:58.540Z,1.75
2022-10-03T15:56:45.454Z,1.70
2022-10-03T15:59:27.662Z,1.70
2022-10-03T16:01:55.850Z,1.95
2022-10-03T16:04:34.381Z,2.42
2022-10-03T16:07:09.629Z,2.38
2022-10-03T16:09:57.345Z,2.30
2022-10-03T16:12:36.223Z,2.78
2022-10-03T16:15:21.587Z,2.67
2022-10-03T16:17:57.883Z,2.35
2022-10-03T16:20:41.655Z,2.03
2022-10-03T16:23:17.008Z,2.42
2022-10-03T16:25:47.295Z,2.40
2022-10-03T16:28:19.501Z,2.65
2022-10-03T16:30:57.490Z,2.63
2022-10-03T16:33:52.627Z,2.40
2022-10-03T16:36:25.850Z,6.05
2022-10-03T16:38:57.110Z,3.17
2022-10-03T16:41:28.565Z,5.57
2022-10-03T16:44:00.372Z,5.70
2022-10-03T16:46:39.103Z,5.03
2022-10-03T16:49:54.723Z,3.47
2022-10-03T16:52:31.051Z,3.47
2022-10-03T16:55:02.985Z,3.03
2022-10-03T16:57:36.175Z,3.00
2022-10-03T17:00:06.012Z,3.55
2022-10-03T17:02:33.409Z,3.28
2022-10-03T17:05:07.598Z,2.78
2022-10-03T17:08:06.579Z,3.50
2022-10-03T17:10:48.289Z,3.60
2022-10-03T17:13:18.985Z,3.13
2022-10-03T17:16:34.165Z,3.35
2022-10-03T17:19:09.952Z,3.35
2022-10-03T17:21:41.124Z,3.78
2022-10-03T17:24:41.527Z,3.90
2022-10-03T17:27:17.704Z,3.33
2022-10-03T17:29:59.440Z,3.90
2022-10-03T17:32:35.615Z,3.17
2022-10-03T17:35:26.136Z,3.58
2022-10-03T17:38:48.949Z,3.80
2022-10-03T17:41:51.946Z,3.60
2022-10-03T17:44:18.742Z,3.42
2022-10-03T17:47:04.167Z,4.05
2022-10-03T17:50:16.057Z,5.35
2022-10-03T17:52:46.439Z,5.28
2022-10-03T17:55:19.902Z,4.50
2022-10-03T17:57:50.722Z,4.13
2022-10-03T18:00:29.967Z,4.20
2022-10-03T18:03:03.652Z,4.00
2022-10-03T18:05:34.988Z,3.30
2022-10-03T18:08:07.561Z,3.38
2022-10-03T18:10:39.563Z,3.60
2022-10-03T18:13:19.497Z,3.70
2022-10-03T18:15:55.194Z,3.88
2022-10-03T18:18:41.308Z,3.80
2022-10-03T18:21:29.113Z,3.90
2022-10-03T18:23:56.073Z,4.00
2022-10-03T18:26:32.262Z,3.47
2022-10-03T18:29:33.332Z,3.85
2022-10-03T18:32:17.022Z,3.60
2022-10-03T18:34:48.935Z,3.45
2022-10-03T18:37:41.500Z,3.40
2022-10-03T18:40:29.843Z,3.53
2022-10-03T18:42:57.538Z,3.28
2022-10-03T18:45:31.280Z,3.67
2022-10-03T18:48:07.861Z,4.25
2022-10-03T18:51:10.222Z,4.47
2022-10-03T18:53:47.178Z,4.43
2022-10-03T18:56:22.550Z,3.72
2022-10-03T18:59:30.319Z,4.00
2022-10-03T19:02:02.241Z,3.83
2022-10-03T19:04:49.585Z,4.07
2022-10-03T19:07:31.772Z,3.63
2022-10-03T19:10:16.820Z,4.13
2022-10-03T19:12:48.322Z,4.15
2022-10-03T19:15:33.685Z,3.50
2022-10-03T19:18:27.604Z,3.90
2022-10-03T19:21:09.213Z,3.40
2022-10-03T19:23:39.764Z,3.42
2022-10-03T19:26:12.094Z,2.97
2022-10-03T19:29:12.805Z,3.30
2022-10-03T19:31:44.662Z,3.22
2022-10-03T19:34:35.231Z,3.42
2022-10-03T19:37:02.975Z,3.25
2022-10-03T19:39:35.715Z,3.58
2022-10-03T19:42:15.257Z,3.63
2022-10-03T19:44:54.638Z,3.30
2022-10-03T19:47:31.136Z,3.97
2022-10-03T19:50:14.281Z,3.65
2022-10-03T19:52:43.975Z,3.50
2022-10-03T19:55:42.103Z,3.45
2022-10-03T19:58:08.613Z,3.03
2022-10-03T20:00:49.076Z,3.47
2022-10-03T20:03:36.159Z,3.45
2022-10-03T20:06:11.789Z,3.20
2022-10-03T20:09:03.426Z,3.22
2022-10-03T20:11:43.976Z,2.95
2022-10-03T20:14:27.208Z,3.10
2022-10-03T20:17:05.614Z,3.58
2022-10-03T20:20:06.469Z,3.42
2022-10-03T20:22:38.422Z,3.13
2022-10-03T20:25:08.908Z,3.22
2022-10-03T20:27:52.249Z,3.28
2022-10-03T20:30:40.648Z,3.45
2022-10-03T20:33:08.558Z,4.60
2022-10-03T20:36:05.336Z,4.80
2022-10-03T20:39:05.838Z,4.20
2022-10-03T20:41:42.146Z,3.80
2022-10-03T20:44:47.576Z,3.78
2022-10-03T20:47:54.679Z,3.70
2022-10-03T20:50:35.289Z,3.65
2022-10-03T20:53:15.656Z,4.05
2022-10-03T20:55:58.191Z,4.20
2022-10-03T20:58:51.989Z,4.60
2022-10-03T21:01:27.648Z,4.75
2022-10-03T21:04:18.289Z,4.90
2022-10-03T21:07:00.426Z,4.97
2022-10-03T21:12:47.695Z,5.50
2022-10-03T21:15:37.185Z,4.72
2022-10-03T21:18:05.705Z,4.90
2022-10-03T21:20:41.137Z,4.90
2022-10-03T21:26:06.447Z,4.68
2022-10-03T21:28:38.467Z,4.57
2022-10-03T21:31:42.204Z,5.80
2022-10-03T21:34:34.968Z,4.32
2022-10-03T21:37:18.468Z,4.68
2022-10-03T21:39:56.170Z,5.47
2022-10-03T21:42:37.826Z,5.28
2022-10-03T21:45:16.617Z,5.22
2022-10-03T21:47:57.819Z,5.47
2022-10-03T21:50:41.464Z,5.53
2022-10-03T21:53:08.005Z,5.18
2022-10-03T21:55:53.588Z,5.82
2022-10-03T21:58:38.091Z,5.97
2022-10-03T22:01:28.419Z,5.85
2022-10-03T22:04:05.216Z,5.50
2022-10-03T22:06:57.965Z,6.32
2022-10-03T22:09:24.866Z,6.43
2022-10-03T22:11:59.537Z,6.30
2022-10-03T22:14:26.285Z,6.47
2022-10-03T22:17:15.165Z,6.43
2022-10-03T22:19:53.711Z,6.85
2022-10-03T22:22:28.736Z,6.65
2022-10-03T22:25:26.377Z,6.38
2022-10-03T22:28:08.502Z,7.38
2022-10-03T22:30:43.177Z,8.13
2022-10-03T22:33:39.738Z,8.85
2022-10-03T22:36:11.185Z,7.80
2022-10-03T22:38:39.029Z,8.23
2022-10-03T22:41:11.505Z,8.02
2022-10-03T22:43:39.391Z,7.75
2022-10-03T22:46:08.342Z,8.55
2022-10-03T22:48:40.103Z,8.48
2022-10-03T22:51:13.252Z,7.65
2022-10-03T22:53:46.994Z,7.80
2022-10-03T22:57:02.067Z,8.52
2022-10-03T22:59:32.671Z,8.05
2022-10-03T23:02:06.235Z,9.15
2022-10-03T23:04:45.707Z,7.53
2022-10-03T23:07:37.379Z,8.10
2022-10-03T23:10:07.095Z,8.27
2022-10-03T23:12:44.925Z,7.75
2022-10-03T23:15:26.178Z,8.13
2022-10-03T23:18:29.931Z,8.88
2022-10-03T23:21:06.345Z,8.25
2022-10-03T23:23:51.864Z,8.45
2022-10-03T23:27:02.035Z,7.70
2022-10-03T23:29:28.762Z,8.00
2022-10-03T23:32:08.368Z,8.20
2022-10-03T23:34:37.777Z,7.90
2022-10-03T23:37:13.601Z,8.65
2022-10-03T23:39:43.016Z,7.28
2022-10-03T23:42:17.755Z,6.88
2022-10-03T23:44:58.770Z,7.72
2022-10-03T23:47:33.171Z,7.65
2022-10-03T23:50:02.695Z,6.43
2022-10-03T23:52:40.220Z,7.50
2022-10-03T23:55:09.706Z,7.35
2022-10-03T23:57:41.835Z,8.07
